Webcam Flughafen St.Gallen-Altenrhein

Live-Bilder und Zeitraffer LSZR / ACH.

 

Live aus Altenrhein
LIVE
LSZR 220750Z VRB02KT 9999 SCT040 19/17 Q1014 NOSIG RMK D
Zeitraffer heute
2020-09-22 00:14:35
LSZR 212150Z AUTO 12002KT 9999 NSC 18/16 Q1015